Time;durP1;ratioP1;P1;durP2;ratioP2;P2;SDS_P1;SDS_P2;PMS_P1;PMS_P2;Temp;Humidity;BMP_temperature;BMP_pressure;BME280_temperature;BME280_humidity;BME280_pressure;Samples;Min_cycle;Max_cycle;Signal;HPM_P1;HPM_P2
2022/06/10 00:00:32;;;;;;;3.60;3.30;;;16.40;99.90;;;16.89;nan;101178.63;4933329;29;24972;-65
2022/06/10 00:02:59;;;;;;;6.22;3.30;;;16.40;99.90;;;16.92;nan;101184.47;4934369;29;24510;-65
2022/06/10 00:05:29;;;;;;;3.95;3.50;;;16.40;99.90;;;16.87;nan;101176.16;4935210;29;24513;-66
2022/06/10 00:07:56;;;;;;;4.53;3.50;;;16.40;99.90;;;16.87;nan;101177.94;4932818;29;24447;-66
2022/06/10 00:10:27;;;;;;;3.90;3.50;;;16.40;99.90;;;16.88;nan;101177.81;4931801;29;25126;-65
2022/06/10 00:12:54;;;;;;;4.00;3.60;;;16.40;99.90;;;16.85;nan;101178.09;4931702;29;24462;-66
2022/06/10 00:15:21;;;;;;;6.30;3.30;;;16.40;99.90;;;16.82;nan;101183.63;4932146;29;24992;-64
2022/06/10 00:17:48;;;;;;;3.72;3.42;;;16.40;99.90;;;16.78;nan;101184.06;4934218;29;24454;-66
2022/06/10 00:20:19;;;;;;;3.45;3.15;;;16.40;99.90;;;16.75;nan;101177.25;4930982;29;24482;-65
2022/06/10 00:22:46;;;;;;;4.80;3.25;;;16.30;99.90;;;16.76;nan;101180.72;4931881;29;24466;-66
2022/06/10 00:25:17;;;;;;;3.60;3.30;;;16.30;99.90;;;16.71;nan;101175.84;4933740;29;24437;-66
2022/06/10 00:27:45;;;;;;;4.37;3.63;;;16.30;99.90;;;16.70;nan;101183.88;4916314;29;24438;-66
2022/06/10 00:30:13;;;;;;;4.78;3.20;;;16.30;99.90;;;16.67;nan;101185.00;4931160;29;24457;-65
2022/06/10 00:32:41;;;;;;;4.57;3.10;;;16.30;99.90;;;16.67;nan;101184.16;4932774;29;24454;-65
2022/06/10 00:35:09;;;;;;;6.37;3.40;;;16.20;99.90;;;16.56;nan;101184.28;4934285;29;24437;-66
2022/06/10 00:37:36;;;;;;;3.80;3.20;;;16.10;99.90;;;16.54;nan;101184.41;4923963;29;24466;-65
2022/06/10 00:40:06;;;;;;;4.80;3.30;;;16.10;99.90;;;16.52;nan;101177.63;4925816;29;24449;-65
2022/06/10 00:42:35;;;;;;;4.28;3.33;;;16.10;99.90;;;16.57;nan;101188.59;4932824;29;24427;-65
2022/06/10 00:45:04;;;;;;;6.13;3.38;;;16.10;99.90;;;16.60;nan;101185.66;4932355;29;24985;-65
2022/06/10 00:47:37;;;;;;;4.50;3.10;;;16.10;99.90;;;16.63;nan;101188.03;4933092;29;24456;-66
2022/06/10 00:50:27;;;;;;;4.45;3.30;;;16.20;99.90;;;16.59;nan;101192.72;4933211;29;24465;-66
2022/06/10 00:53:02;;;;;;;4.25;3.60;;;16.20;99.90;;;16.54;nan;101186.22;4931262;29;24465;-67
2022/06/10 00:55:29;;;;;;;5.00;3.70;;;16.10;99.90;;;16.54;nan;101187.06;4931254;29;24482;-67
2022/06/10 00:58:29;;;;;;;4.20;3.80;;;16.10;99.90;;;16.50;nan;101188.28;4930953;29;25023;-65
2022/06/10 01:00:56;;;;;;;3.90;3.50;;;16.00;99.90;;;16.47;nan;101191.16;4931639;29;24818;-66
2022/06/10 01:03:23;;;;;;;5.43;3.92;;;16.00;99.90;;;16.43;nan;101195.03;4932391;29;24737;-66
2022/06/10 01:05:50;;;;;;;5.38;3.78;;;16.00;99.90;;;16.45;nan;101190.44;4928563;29;24446;-65
2022/06/10 01:08:21;;;;;;;4.18;3.72;;;16.00;99.90;;;16.44;nan;101194.03;4925854;29;24469;-66
2022/06/10 01:11:23;;;;;;;7.20;3.67;;;16.00;99.90;;;16.42;nan;101185.44;4913028;29;24462;-66
2022/06/10 01:14:12;;;;;;;4.10;3.70;;;16.00;99.90;;;16.36;nan;101190.41;4921048;29;24446;-66
2022/06/10 01:16:47;;;;;;;4.50;3.60;;;15.90;99.90;;;16.30;nan;101192.63;4932429;29;24450;-65
2022/06/10 01:20:12;;;;;;;4.40;4.00;;;15.90;99.90;;;16.24;nan;101197.59;4931693;29;24485;-65
2022/06/10 01:23:22;;;;;;;5.28;3.95;;;15.80;99.90;;;16.13;nan;101197.69;4910039;29;25032;-66
2022/06/10 01:26:28;;;;;;;4.00;3.70;;;15.70;99.90;;;16.04;nan;101198.47;4913938;29;24439;-65
2022/06/10 01:29:09;;;;;;;5.63;3.90;;;15.60;99.90;;;16.02;nan;101203.03;4919375;29;24451;-64
2022/06/10 01:31:56;;;;;;;4.40;3.70;;;15.60;99.90;;;16.04;nan;101198.47;4933438;29;24434;-66
2022/06/10 01:34:36;;;;;;;5.32;3.80;;;15.60;99.90;;;16.04;nan;101198.47;4929824;29;24811;-66
2022/06/10 01:37:31;;;;;;;4.25;3.85;;;15.60;99.90;;;16.06;nan;101202.63;4924257;29;24442;-67
2022/06/10 01:40:06;;;;;;;5.13;3.40;;;15.60;99.90;;;16.06;nan;101196.53;4931743;29;24845;-64
2022/06/10 01:42:55;;;;;;;5.78;4.00;;;15.60;99.90;;;16.01;nan;101190.84;4932790;29;25003;-66
2022/06/10 01:45:52;;;;;;;5.18;3.95;;;15.60;99.90;;;16.03;nan;101205.56;4930029;29;24459;-66
2022/06/10 01:48:57;;;;;;;4.80;3.50;;;15.60;99.90;;;16.02;nan;101210.91;4914421;29;24549;-66
2022/06/10 01:51:34;;;;;;;4.60;4.10;;;15.60;99.90;;;15.91;nan;101216.25;4931685;29;24564;-65
2022/06/10 01:54:32;;;;;;;6.03;4.05;;;15.50;99.90;;;15.97;nan;101206.03;4930001;29;24481;-65
2022/06/10 01:57:07;;;;;;;4.35;3.45;;;15.50;99.90;;;16.00;nan;101207.59;4930891;29;24442;-66
2022/06/10 02:00:17;;;;;;;5.65;3.70;;;15.50;99.90;;;15.98;nan;101209.53;4929001;29;24450;-66
2022/06/10 02:02:56;;;;;;;5.45;3.60;;;15.60;99.90;;;15.98;nan;101207.72;4919267;29;25007;-66
2022/06/10 02:05:27;;;;;;;5.70;3.78;;;15.50;99.90;;;15.98;nan;101202.47;4923362;29;24589;-65
2022/06/10 02:08:11;;;;;;;5.20;3.58;;;15.50;99.90;;;15.93;nan;101211.72;4922935;29;24812;-63
2022/06/10 02:11:05;;;;;;;4.88;3.70;;;15.50;99.90;;;15.73;nan;101213.41;4929709;29;24450;-66
2022/06/10 02:13:40;;;;;;;5.15;3.97;;;15.40;99.90;;;15.64;nan;101210.69;4927523;29;24473;-66
2022/06/10 02:16:15;;;;;;;5.32;3.60;;;15.20;99.90;;;15.57;nan;101210.38;4924950;29;24443;-66
2022/06/10 02:18:50;;;;;;;4.80;4.30;;;15.10;99.90;;;15.54;nan;101214.09;4922857;29;24459;-65
2022/06/10 02:21:31;;;;;;;4.45;3.80;;;15.10;99.90;;;15.51;nan;101211.75;4929803;29;24442;-64
2022/06/10 02:24:11;;;;;;;5.82;4.30;;;15.10;99.90;;;15.54;nan;101214.09;4930216;29;24450;-64
2022/06/10 02:26:39;;;;;;;7.00;4.40;;;15.10;99.90;;;15.57;nan;101222.72;4932032;29;25066;-64
2022/06/10 02:29:12;;;;;;;7.32;4.05;;;15.10;99.90;;;15.55;nan;101220.19;4928886;29;24465;-65
2022/06/10 02:31:50;;;;;;;5.10;3.70;;;15.10;99.90;;;15.49;nan;101218.91;4929961;29;24534;-65
2022/06/10 02:34:17;;;;;;;4.93;3.90;;;15.10;99.90;;;15.48;nan;101226.94;4929207;29;24809;-65
2022/06/10 02:36:54;;;;;;;4.35;3.60;;;15.10;99.90;;;15.38;nan;101229.47;4929422;29;24991;-66
2022/06/10 02:39:45;;;;;;;5.10;4.15;;;15.00;99.90;;;15.28;nan;101225.91;4930587;29;24532;-65
2022/06/10 02:42:47;;;;;;;5.25;3.92;;;14.90;99.90;;;15.22;nan;101231.69;4912137;29;24502;-65
2022/06/10 02:45:56;;;;;;;6.53;4.50;;;14.80;99.90;;;15.25;nan;101231.41;4917039;29;25067;-65
2022/06/10 02:48:33;;;;;;;6.97;4.50;;;14.90;99.90;;;15.27;nan;101237.38;4931256;29;25111;-65
2022/06/10 02:51:01;;;;;;;6.35;4.63;;;14.90;99.90;;;15.34;nan;101241.19;4924251;29;24466;-65
2022/06/10 02:53:29;;;;;;;5.68;4.80;;;14.90;99.90;;;15.41;nan;101238.91;4928782;29;24453;-66
2022/06/10 02:55:56;;;;;;;6.32;4.93;;;15.00;99.90;;;15.45;nan;101242.97;4932194;29;24450;-67
2022/06/10 03:01:51;;;;;;;5.93;4.40;;;15.10;99.90;;;15.52;nan;101244.94;4912200;29;24427;-66
2022/06/10 03:04:38;;;;;;;5.80;4.30;;;15.10;99.90;;;15.53;nan;101249.25;4896844;29;24447;-66
2022/06/10 03:07:32;;;;;;;5.50;4.40;;;15.20;99.90;;;15.52;nan;101254.66;4911669;29;24434;-65
2022/06/10 03:10:06;;;;;;;5.45;3.92;;;15.10;99.90;;;15.43;nan;101253.63;4920036;29;24612;-66
2022/06/10 03:13:11;;;;;;;5.70;4.05;;;15.00;99.90;;;15.35;nan;101261.25;4930277;29;24461;-66
2022/06/10 03:16:00;;;;;;;5.18;4.65;;;14.90;99.90;;;15.32;nan;101252.78;4929100;29;24446;-67
2022/06/10 03:18:45;;;;;;;7.28;5.10;;;14.90;99.90;;;15.32;nan;101261.53;4930133;29;24610;-66
2022/06/10 03:22:02;;;;;;;5.90;4.43;;;14.90;99.90;;;15.36;nan;101268.19;4930752;29;24434;-67
2022/06/10 03:24:52;;;;;;;7.43;4.45;;;15.00;99.90;;;15.34;nan;101269.28;4919867;29;24478;-67
2022/06/10 03:27:33;;;;;;;6.45;4.50;;;15.00;99.90;;;15.32;nan;101271.19;4923486;29;24434;-66
2022/06/10 03:30:08;;;;;;;5.10;4.60;;;14.90;99.90;;;15.33;nan;101278.94;4929229;29;24458;-65
2022/06/10 03:32:58;;;;;;;5.10;4.10;;;14.90;99.90;;;15.37;nan;101274.28;4930128;29;24449;-68
2022/06/10 03:35:40;;;;;;;4.90;3.97;;;15.00;99.90;;;15.39;nan;101286.38;4927351;29;24454;-67
2022/06/10 03:38:08;;;;;;;5.50;4.80;;;15.00;99.90;;;15.35;nan;101284.91;4928305;29;24470;-65
2022/06/10 03:40:35;;;;;;;5.60;4.40;;;15.00;99.90;;;15.30;nan;101289.72;4928386;29;24452;-67
2022/06/10 03:43:06;;;;;;;6.55;4.47;;;14.90;99.90;;;15.24;nan;101286.75;4929990;29;24446;-68
2022/06/10 03:45:39;;;;;;;6.80;4.78;;;14.90;99.90;;;15.22;nan;101294.78;4929070;29;24443;-67
2022/06/10 03:48:08;;;;;;;10.93;6.63;;;14.80;99.90;;;15.27;nan;101295.22;4932275;29;24590;-66
2022/06/10 03:50:38;;;;;;;6.35;4.60;;;14.90;99.90;;;15.40;nan;101293.28;4931865;29;24537;-67
2022/06/10 03:53:07;;;;;;;7.75;4.60;;;15.10;99.90;;;15.49;nan;101300.47;4932639;29;24481;-67
2022/06/10 03:55:34;;;;;;;5.95;4.63;;;15.10;99.90;;;15.58;nan;101304.13;4931996;29;24453;-67
2022/06/10 03:58:01;;;;;;;6.68;4.70;;;15.20;99.90;;;15.65;nan;101305.31;4933121;29;24461;-66
2022/06/10 04:00:29;;;;;;;5.10;4.60;;;15.30;99.90;;;15.62;nan;101309.97;4933341;29;24802;-67
2022/06/10 04:02:56;;;;;;;5.47;4.37;;;15.30;99.90;;;15.67;nan;101310.44;4933153;29;24447;-65
2022/06/10 04:05:24;;;;;;;6.40;4.70;;;15.30;99.90;;;15.79;nan;101314.66;4933828;29;24450;-67
2022/06/10 04:07:51;;;;;;;5.40;4.60;;;15.40;99.90;;;15.97;nan;101313.16;4933447;29;24983;-65
2022/06/10 04:10:24;;;;;;;7.22;4.60;;;15.60;99.90;;;16.12;nan;101312.69;4933580;29;24443;-65
2022/06/10 04:12:51;;;;;;;6.45;4.60;;;15.80;99.90;;;16.29;nan;101319.97;4933487;29;25059;-67
2022/06/10 04:15:19;;;;;;;5.75;4.63;;;16.00;99.90;;;16.56;nan;101310.72;4924729;29;25000;-67
2022/06/10 04:17:49;;;;;;;5.00;4.50;;;16.30;99.90;;;16.87;nan;101326.38;4933185;29;24442;-67
2022/06/10 04:20:29;;;;;;;7.85;5.00;;;16.60;99.90;;;17.15;nan;101322.16;4932644;29;24458;-66
2022/06/10 04:22:57;;;;;;;8.95;4.80;;;16.90;99.90;;;17.44;nan;101327.50;4933233;29;24443;-65
2022/06/10 04:25:25;;;;;;;5.83;4.80;;;17.20;99.90;;;17.72;nan;101340.72;4929091;29;24490;-66
2022/06/10 04:27:52;;;;;;;7.95;5.10;;;17.50;99.90;;;17.85;nan;101332.50;4928260;29;24457;-68
2022/06/10 04:30:32;;;;;;;5.95;4.80;;;17.60;99.90;;;18.02;nan;101339.72;4955368;23;24549;-66
2022/06/10 04:33:00;;;;;;;8.40;5.10;;;17.80;99.90;;;18.12;nan;101337.88;4944181;28;24817;-65
2022/06/10 04:35:29;;;;;;;5.65;4.30;;;17.90;99.90;;;18.25;nan;101345.53;4931824;29;24446;-66
2022/06/10 04:37:57;;;;;;;5.60;4.40;;;18.00;99.90;;;18.26;nan;101350.69;4942839;29;24818;-67
2022/06/10 04:40:31;;;;;;;4.32;3.92;;;18.00;99.90;;;18.21;nan;101344.13;4933340;29;24485;-66
2022/06/10 04:42:58;;;;;;;5.15;4.10;;;18.00;99.90;;;18.29;nan;101353.00;4951860;29;24469;-65
2022/06/10 04:45:30;;;;;;;4.57;3.97;;;18.10;99.90;;;18.40;nan;101349.38;4952700;28;24511;-65
2022/06/10 04:47:58;;;;;;;4.57;3.88;;;18.20;99.90;;;18.51;nan;101347.44;4951750;28;24452;-66
2022/06/10 04:50:28;;;;;;;5.00;3.60;;;18.30;99.90;;;18.67;nan;101346.84;4952042;28;24450;-65
2022/06/10 04:52:56;;;;;;;5.10;3.85;;;18.40;99.90;;;18.87;nan;101347.59;4952646;28;24960;-65
2022/06/10 04:55:25;;;;;;;4.57;3.80;;;18.60;99.90;;;18.99;nan;101341.13;4951866;28;24450;-64
2022/06/10 04:57:55;;;;;;;3.63;3.33;;;18.70;99.90;;;19.14;nan;101343.13;4951061;28;24454;-65
2022/06/10 05:00:34;;;;;;;4.20;3.80;;;18.90;99.90;;;19.32;nan;101345.78;4950542;28;24977;-66
2022/06/10 05:03:02;;;;;;;5.40;4.00;;;19.10;99.90;;;19.55;nan;101344.41;4952326;28;24444;-66
2022/06/10 05:05:30;;;;;;;6.38;4.15;;;19.30;99.90;;;19.70;nan;101347.38;4950554;28;24466;-65
2022/06/10 05:07:57;;;;;;;4.25;3.90;;;19.50;99.90;;;19.84;nan;101352.97;4932956;29;24561;-65
2022/06/10 05:10:25;;;;;;;5.80;3.75;;;19.60;99.90;;;19.98;nan;101352.41;4947976;29;24482;-68
2022/06/10 05:12:52;;;;;;;6.10;4.00;;;19.80;99.90;;;20.13;nan;101350.88;4943248;28;24449;-65
2022/06/10 05:15:22;;;;;;;8.95;4.10;;;19.90;99.90;;;20.38;nan;101351.09;4937118;28;24450;-66
2022/06/10 05:17:52;;;;;;;6.20;3.97;;;20.20;99.90;;;20.73;nan;101353.59;4945210;29;20205;-66
2022/06/10 05:20:34;;;;;;;3.73;3.07;;;20.50;99.90;;;21.04;nan;101357.41;4937854;28;20692;-67
2022/06/10 05:23:02;;;;;;;3.70;3.40;;;20.70;99.90;;;21.26;nan;101367.44;4933616;29;20609;-65
2022/06/10 05:25:31;;;;;;;4.03;3.50;;;21.00;99.90;;;21.47;nan;101354.53;4946892;29;20636;-66
2022/06/10 05:27:58;;;;;;;4.20;3.80;;;21.10;99.90;;;21.71;nan;101360.88;4950408;29;20987;-66
2022/06/10 05:30:28;;;;;;;5.80;4.20;;;21.30;99.90;;;22.06;nan;101372.03;4951523;28;21079;-65
2022/06/10 05:32:55;;;;;;;8.23;3.83;;;21.70;99.90;;;22.37;nan;101369.53;4952726;28;20643;-67
2022/06/10 05:35:23;;;;;;;7.63;4.53;;;22.10;99.90;;;22.68;nan;101377.66;4949818;28;20644;-65
2022/06/10 05:37:50;;;;;;;6.90;4.23;;;22.40;99.90;;;22.84;nan;101377.59;4943874;29;20632;-66
2022/06/10 05:40:23;;;;;;;9.20;5.70;;;22.60;99.90;;;23.02;nan;101380.88;4943112;29;20677;-68
2022/06/10 05:42:50;;;;;;;4.17;3.77;;;22.70;99.90;;;23.08;nan;101383.63;4933163;29;20637;-65
2022/06/10 05:45:33;;;;;;;7.67;4.70;;;22.80;99.90;;;23.24;nan;101388.06;4932526;29;20696;-65
2022/06/10 05:48:14;;;;;;;9.43;5.00;;;22.80;99.90;;;23.40;nan;101385.38;4930583;29;21191;-67
2022/06/10 05:50:43;;;;;;;10.77;4.60;;;23.10;99.50;;;23.50;nan;101387.78;4950360;29;20656;-66
2022/06/10 05:53:13;;;;;;;5.50;4.10;;;23.20;99.40;;;23.86;nan;101378.22;4952128;28;21056;-65
2022/06/10 05:55:40;;;;;;;10.87;4.20;;;23.60;98.70;;;24.28;nan;101391.06;4945984;28;20648;-70
2022/06/10 05:58:08;;;;;;;5.37;4.50;;;24.00;97.50;;;24.60;nan;101386.22;4934139;29;21057;-67
2022/06/10 06:00:36;;;;;;;10.93;3.77;;;24.40;96.70;;;24.99;nan;101390.50;4941246;29;20675;-65
2022/06/10 06:03:04;;;;;;;7.90;4.10;;;24.70;96.10;;;25.16;nan;101392.78;4952666;28;20620;-66
2022/06/10 06:05:32;;;;;;;6.33;4.10;;;24.90;94.70;;;25.46;nan;101390.06;4943631;29;20697;-67
2022/06/10 06:07:59;;;;;;;5.33;3.50;;;25.20;94.30;;;25.57;nan;101395.75;4952432;28;20628;-65
2022/06/10 06:10:28;;;;;;;6.07;4.03;;;25.20;93.80;;;25.70;nan;101397.75;4935703;28;20679;-67
2022/06/10 06:12:56;;;;;;;6.37;4.90;;;25.40;93.00;;;25.62;nan;101387.97;4933242;29;20632;-66
2022/06/10 06:15:24;;;;;;;5.70;4.83;;;25.30;93.40;;;25.99;nan;101395.75;4938889;29;20656;-67
2022/06/10 06:17:52;;;;;;;7.17;4.80;;;25.70;92.70;;;26.62;nan;101397.50;4950673;29;20636;-67
2022/06/10 06:20:22;;;;;;;5.90;4.57;;;26.30;91.90;;;27.53;nan;101407.91;4951456;28;20723;-64
2022/06/10 06:22:50;;;;;;;7.47;4.60;;;27.30;90.50;;;28.32;nan;101397.28;4949900;29;20644;-65
2022/06/10 06:25:18;;;;;;;5.30;4.80;;;28.10;87.20;;;28.82;nan;101398.44;4952022;28;20639;-66
2022/06/10 06:27:52;;;;;;;5.40;4.43;;;28.50;84.30;;;29.54;nan;101396.31;4951782;28;20636;-65
2022/06/10 06:30:32;;;;;;;9.10;5.00;;;29.30;81.80;;;30.09;nan;101399.28;4950870;28;20682;-65
2022/06/10 06:33:05;;;;;;;5.20;4.57;;;29.80;78.50;;;30.13;nan;101393.25;4949069;29;20635;-65
2022/06/10 06:35:36;;;;;;;6.20;4.70;;;29.90;76.20;;;30.72;nan;101397.25;4944794;28;20637;-65
2022/06/10 06:38:04;;;;;;;11.07;4.90;;;30.40;74.70;;;30.88;nan;101391.31;4945509;29;20640;-65
2022/06/10 06:40:32;;;;;;;5.50;5.00;;;30.60;72.50;;;31.51;nan;101394.47;4932122;29;20728;-64
2022/06/10 06:42:59;;;;;;;5.97;5.37;;;31.10;71.20;;;32.28;nan;101382.66;4940773;29;20636;-65
2022/06/10 06:45:27;;;;;;;8.17;6.07;;;31.90;68.90;;;33.02;nan;101393.56;4952110;28;21000;-67
2022/06/10 06:48:04;;;;;;;7.57;6.00;;;32.70;66.90;;;33.67;nan;101396.72;4950618;29;20612;-67
2022/06/10 06:50:33;;;;;;;6.93;6.23;;;33.40;63.80;;;32.77;nan;101398.41;4943146;28;20673;-67
2022/06/10 06:53:01;;;;;;;9.90;5.07;;;32.90;62.10;;;33.35;nan;101393.66;4941331;29;20641;-67
2022/06/10 06:55:37;;;;;;;10.07;7.17;;;33.10;62.30;;;34.06;nan;101403.09;4948869;28;20632;-65
2022/06/10 06:58:09;;;;;;;8.33;6.10;;;33.70;60.90;;;34.59;nan;101399.84;4952825;28;20624;-66
2022/06/10 07:00:36;;;;;;;8.40;6.77;;;34.20;59.20;;;35.13;nan;101407.13;4941788;28;20676;-66
2022/06/10 07:03:04;;;;;;;8.00;6.90;;;34.70;58.10;;;34.63;nan;101393.69;4932619;29;20998;-66
2022/06/10 07:05:31;;;;;;;12.60;8.20;;;34.70;56.60;;;34.41;nan;101390.13;4933203;29;21056;-65
2022/06/10 07:07:59;;;;;;;8.83;6.80;;;34.00;57.50;;;35.45;nan;101396.34;4938860;29;20632;-65
2022/06/10 07:10:26;;;;;;;12.77;7.30;;;34.80;56.70;;;35.45;nan;101396.34;4931331;29;20704;-67
2022/06/10 07:12:53;;;;;;;8.03;6.53;;;35.30;55.50;;;36.37;nan;101399.63;4952463;28;21138;-66
2022/06/10 07:15:22;;;;;;;10.13;6.73;;;35.80;54.90;;;37.45;nan;101400.69;4951356;28;21244;-65
2022/06/10 07:17:49;;;;;;;8.85;7.70;;;36.80;53.70;;;38.54;nan;101398.25;4945200;29;24641;-66
2022/06/10 07:20:28;;;;;;;8.43;7.13;;;38.10;51.80;;;39.29;nan;101410.81;4950507;28;20236;-66
2022/06/10 07:22:55;;;;;;;7.63;5.90;;;38.80;50.30;;;39.85;nan;101403.03;4953562;29;20632;-65
2022/06/10 07:25:23;;;;;;;6.37;5.67;;;39.20;48.70;;;40.47;nan;101392.09;4953465;29;20628;-65
2022/06/10 07:27:52;;;;;;;9.77;6.13;;;39.90;47.70;;;40.32;nan;101400.44;4951547;29;21208;-65
2022/06/10 07:30:22;;;;;;;6.13;5.63;;;39.70;47.00;;;40.73;nan;101393.44;4931954;29;20677;-65
2022/06/10 07:32:49;;;;;;;11.87;5.47;;;40.00;46.60;;;40.86;nan;101400.13;4935411;29;20720;-65
2022/06/10 07:35:18;;;;;;;6.27;5.73;;;40.10;45.60;;;41.40;nan;101396.94;4943246;29;20648;-66
2022/06/10 07:37:46;;;;;;;7.00;6.30;;;40.70;45.50;;;40.96;nan;101395.34;4943712;28;20639;-65
2022/06/10 07:43:30;;;;;;;5.27;4.77;;;40.70;43.80;;;41.60;nan;101391.13;4946750;29;20626;-64
2022/06/10 07:46:00;;;;;;;5.90;4.47;;;40.80;43.60;;;42.39;nan;101387.31;4951816;29;21233;-65
2022/06/10 07:48:27;;;;;;;8.70;5.63;;;41.80;42.80;;;;;;4951846;29;20632;-64
2022/06/10 07:50:54;;;;;;;7.43;5.23;;;42.40;42.10;;;;;;4955724;28;21013;-66
2022/06/10 07:53:20;;;;;;;5.40;4.90;;;42.40;41.80;;;;;;4953751;28;20640;-67
2022/06/10 07:55:48;;;;;;;6.80;6.03;;;42.60;41.40;;;;;;4954193;28;20739;-67
2022/06/10 07:58:17;;;;;;;5.90;5.30;;;41.90;42.20;;;;;;4944311;28;20740;-67
2022/06/10 08:00:44;;;;;;;5.37;4.43;;;41.70;41.70;;;;;;4939043;29;20707;-66
2022/06/10 08:03:11;;;;;;;4.53;4.20;;;41.80;41.30;;;;;;4954120;28;21104;-66
2022/06/10 08:05:40;;;;;;;4.17;3.73;;;42.10;41.00;;;;;;4954270;28;20622;-66
2022/06/10 08:08:08;;;;;;;11.00;4.60;;;42.80;40.50;;;;;;4953216;28;21225;-67
2022/06/10 08:10:36;;;;;;;5.50;4.10;;;42.50;40.40;;;;;;4954603;28;20662;-68
2022/06/10 08:13:05;;;;;;;3.87;3.57;;;42.80;40.30;;;;;;4954285;28;20648;-66
2022/06/10 08:15:33;;;;;;;4.70;4.03;;;42.90;40.00;;;;;;4954770;28;21008;-66
2022/06/10 08:18:01;;;;;;;4.33;4.03;;;42.10;39.80;;;;;;4954059;28;21032;-68
2022/06/10 08:23:18;;;;;;;4.13;3.83;;;43.40;39.20;;;;;;4939705;29;21232;-68
2022/06/10 08:25:45;;;;;;;3.53;3.27;;;42.90;39.20;;;;;;4954365;28;20626;-66
2022/06/10 08:28:12;;;;;;;3.90;3.60;;;43.60;38.90;;;;;;4950821;28;21220;-66
2022/06/10 08:30:40;;;;;;;7.20;3.63;;;44.00;38.40;;;;;;4945751;29;20680;-66
2022/06/10 08:33:06;;;;;;;4.90;3.43;;;43.60;37.90;;;;;;4934423;29;20625;-66
2022/06/10 08:35:36;;;;;;;3.80;3.50;;;42.50;38.10;;;;;;4942258;29;20731;-66
2022/06/10 08:38:06;;;;;;;2.70;2.50;;;43.80;37.90;;;;;;4946769;29;20734;-66
2022/06/10 08:40:44;;;;;;;2.57;2.20;;;44.00;37.20;;;;;;4945577;28;20743;-67
2022/06/10 08:43:35;;;;;;;2.20;2.10;;;44.50;36.80;;;;;;4951308;28;20625;-66
2022/06/10 08:46:27;;;;;;;2.17;2.07;;;45.10;35.90;;;;;;4934812;29;21026;-65
2022/06/10 08:49:09;;;;;;;2.60;2.40;;;43.80;36.10;;;;;;4934874;29;20617;-67
2022/06/10 08:52:03;;;;;;;2.50;1.77;;;43.50;36.60;;;;;;4935444;29;20731;-66
2022/06/10 08:54:59;;;;;;;1.90;1.80;;;44.50;35.80;;;;;;4947423;29;20632;-66
2022/06/10 08:57:36;;;;;;;2.20;2.00;;;44.90;35.80;;;;;;4954329;28;20723;-66
2022/06/10 09:00:32;;;;;;;4.00;2.27;;;45.80;35.10;;;;;;4937360;28;20686;-66
2022/06/10 09:03:37;;;;;;;1.90;1.80;;;43.90;35.80;;;;;;4934605;29;20629;-66
2022/06/10 09:06:09;;;;;;;3.50;2.20;;;45.50;35.20;;;;;;4914275;29;20629;-67
2022/06/10 09:08:42;;;;;;;3.17;2.13;;;46.00;34.90;;;;;;4942274;29;20990;-68
2022/06/10 09:11:16;;;;;;;2.23;2.10;;;47.20;34.40;;;;;;4953944;28;20648;-66
2022/06/10 09:14:09;;;;;;;1.97;1.87;;;47.80;34.50;;;;;;4952920;28;20635;-67
2022/06/10 09:16:40;;;;;;;2.00;1.90;;;49.00;34.10;;;;;;4954578;28;20620;-66
2022/06/10 09:19:40;;;;;;;2.50;2.30;;;49.30;33.30;;;;;;4946948;28;20694;-66
2022/06/10 09:22:30;;;;;;;2.20;2.10;;;49.10;33.50;;;;;;4948526;29;20627;-66
2022/06/10 09:25:14;;;;;;;2.10;2.10;;;49.60;33.30;;;;;;4935934;28;21075;-66
2022/06/10 09:27:45;;;;;;;2.53;2.33;;;47.70;32.70;;;;;;4934200;29;20616;-66
2022/06/10 09:30:16;;;;;;;2.10;2.00;;;47.20;33.40;;;;;;4942727;29;20702;-66
2022/06/10 09:32:46;;;;;;;2.20;2.10;;;48.20;33.20;;;;;;4954370;28;20615;-67
2022/06/10 09:35:51;;;;;;;2.13;2.03;;;49.20;32.90;;;;;;4950297;28;20725;-67
2022/06/10 09:38:26;;;;;;;2.47;2.27;;;50.00;32.50;;;;;;4947506;29;20635;-66
2022/06/10 09:41:09;;;;;;;2.40;2.30;;;46.40;33.40;;;;;;4934005;29;20668;-66
2022/06/10 09:43:56;;;;;;;2.50;2.30;;;44.40;34.20;;;;;;4935047;29;20732;-66
2022/06/10 09:46:35;;;;;;;1.70;1.70;;;44.20;34.50;;;;;;4953467;28;20663;-67
2022/06/10 09:49:32;;;;;;;2.17;2.07;;;45.00;34.00;;;;;;4952375;28;20667;-66
2022/06/10 09:52:08;;;;;;;3.37;2.87;;;45.00;33.60;;;;;;4953967;28;20663;-66
2022/06/10 09:54:49;;;;;;;2.90;2.70;;;45.30;34.00;;;;;;4952181;28;20643;-67
2022/06/10 09:57:45;;;;;;;2.30;2.20;;;46.60;34.00;;;;;;4953116;28;20608;-66
2022/06/10 10:00:21;;;;;;;5.23;2.50;;;46.90;33.70;;;;;;4952688;28;20687;-66
2022/06/10 10:03:03;;;;;;;2.43;2.33;;;45.10;33.90;;;;;;4935118;28;20966;-66
2022/06/10 10:06:03;;;;;;;2.30;2.20;;;43.80;34.00;;;;;;4940439;29;20699;-68
2022/06/10 10:09:26;;;;;;;2.00;1.90;;;43.20;34.80;;;;;;4939674;29;20680;-67
2022/06/10 10:12:12;;;;;;;2.23;2.03;;;43.90;34.20;;;;;;4935034;29;20752;-67
2022/06/10 10:15:08;;;;;;;5.07;2.20;;;42.60;35.40;;;;;;4940750;29;20635;-66
2022/06/10 10:17:55;;;;;;;3.37;2.17;;;41.40;36.40;;;;;;4949461;29;20626;-67
2022/06/10 10:20:48;;;;;;;3.63;2.57;;;39.90;36.60;;;;;;4951680;28;20671;-67
2022/06/10 10:23:30;;;;;;;5.97;1.87;;;37.80;38.40;;;;;;4941688;28;20800;-67
2022/06/10 10:25:57;;;;;;;1.57;1.50;;;35.00;38.20;;;;;;4939813;28;20989;-66
2022/06/10 10:28:34;;;;;;;3.67;2.17;;;33.00;40.10;;;;;;4938409;29;21205;-67
2022/06/10 10:31:25;;;;;;;2.00;1.90;;;32.10;41.60;;;;;;4970757;23;20759;-64
2022/06/10 10:33:57;;;;;;;1.93;1.83;;;31.50;42.90;;;;;;4932225;29;20663;-66
2022/06/10 10:36:28;;;;;;;5.05;2.40;;;30.50;43.90;;;;;;4930479;29;24541;-64
2022/06/10 10:38:55;;;;;;;3.00;2.80;;;29.50;45.80;;;;;;4933226;29;20680;-65
2022/06/10 10:41:25;;;;;;;5.50;2.07;;;29.50;46.60;;;;;;4926329;29;20776;-67
2022/06/10 10:43:55;;;;;;;3.70;2.38;;;29.40;45.60;;;;;;4932258;29;24513;-66
2022/06/10 10:46:33;;;;;;;4.10;2.40;;;28.90;47.50;;;;;;4931087;29;25356;-67
2022/06/10 10:49:20;;;;;;;4.13;2.40;;;28.20;47.20;;;;;;4930635;29;24492;-64
2022/06/10 10:51:49;;;;;;;1.47;1.40;;;27.70;48.00;;;;;;4926099;29;20226;-65
2022/06/10 10:54:33;;;;;;;2.03;1.80;;;27.40;46.90;;;;;;4929049;29;20692;-64
2022/06/10 10:57:01;;;;;;;2.40;1.70;;;27.20;47.80;;;;;;4932091;29;20633;-64
2022/06/10 10:59:40;;;;;;;2.20;2.00;;;26.80;48.80;;;;;;4933202;29;21174;-63
2022/06/10 11:02:32;;;;;;;6.83;2.03;;;26.60;48.90;;;;;;4933275;29;20732;-64
2022/06/10 11:05:20;;;;;;;2.03;1.60;;;26.50;49.50;;;;;;4931073;29;20641;-66
2022/06/10 11:08:13;;;;;;;4.20;2.30;;;26.10;49.10;;;;;;4930835;29;20621;-65
2022/06/10 11:11:04;;;;;;;2.13;1.80;;;26.20;50.00;;;;;;4931690;29;20767;-64
2022/06/10 11:13:35;;;;;;;1.93;1.70;;;26.50;50.00;;;;;;4929754;29;20640;-66
2022/06/10 11:16:34;;;;;;;1.63;1.47;;;26.50;48.50;;;;;;4933196;29;20628;-68
2022/06/10 11:19:01;;;;;;;1.27;1.27;;;26.40;47.20;;;;;;4931432;29;20644;-66
2022/06/10 11:21:28;;;;;;;2.23;1.70;;;26.30;47.10;;;;;;4931770;29;21253;-63
2022/06/10 11:23:57;;;;;;;1.30;1.20;;;26.30;47.70;;;;;;4926731;29;21412;-64
2022/06/10 11:26:26;;;;;;;1.93;1.80;;;26.20;46.70;;;;;;4931658;29;20682;-65
2022/06/10 11:29:03;;;;;;;1.70;1.60;;;25.80;46.90;;;;;;4930162;29;24446;-65
2022/06/10 11:31:59;;;;;;;3.20;1.70;;;25.80;47.30;;;;;;4930114;29;24542;-64
2022/06/10 11:34:40;;;;;;;2.40;1.70;;;25.70;47.10;;;;;;4930601;29;24844;-65
2022/06/10 11:37:40;;;;;;;2.00;1.80;;;25.70;47.50;;;;;;4929555;29;24538;-63
2022/06/10 11:40:14;;;;;;;2.35;1.80;;;26.00;46.80;;;;;;4905573;29;24553;-64
2022/06/10 11:42:50;;;;;;;2.00;1.70;;;26.10;47.10;;;;;;4917540;29;24531;-63
2022/06/10 11:45:24;;;;;;;3.00;2.00;;;26.20;47.80;;;;;;4931898;29;24454;-63
2022/06/10 11:47:58;;;;;;;3.28;1.80;;;25.90;49.00;;;;;;4931873;29;24601;-64
2022/06/10 11:50:37;;;;;;;2.03;1.90;;;26.00;49.40;;;;;;4931595;29;24430;-64
2022/06/10 11:53:15;;;;;;;2.60;2.30;;;26.30;49.30;;;;;;4931306;29;24859;-63
2022/06/10 11:55:47;;;;;;;2.90;1.90;;;26.40;49.20;;;;;;4931039;29;24466;-62